Fishtail, Montana
Current Conditions -  °F | °C
As of 9:53 PM on Saturday 25 Oct 2014 (Local Time) from KLVM Reporting Station
Clear Clear  
Wind Chill: 67°   Ceiling: Unl
Heat Index: 67°   Visibility: 10mi
Dew Point: 28°   Wind: 20mph
Humidity: 23%   Direction: 220°SW
Pressure: 29.71"   Gusts: 33mph
Location:  45.45°N, 109.51°W
Report Text: KLVM 260353Z AUTO 22017G29KT 10SM CLR 19/M02 A2971 RMK AO2 PK WND 22029/0346 SLP040 T01941022
Loading
Personal Weather Stations






























Interactive Weather Map
Tropical Storm Tracking
New forecast layout! Learn more

10-Day Weather Forecast

Advertisements
Track Severe Weather on mobile